AirNav   Bose Proflight Series 2 Wireless Aviation Headset
 
 1061 users online  

FD36 Advent Health East Orlando Heliport
Orlando, Florida, USA

GOING TO ORLANDO?


FAA INFORMATION EFFECTIVE 07 NOVEMBER 2019

Location

FAA Identifier: FD36
Lat/Long: 28-32-26.7000N 081-16-51.0000W
28-32.445000N 081-16.850000W
28.5407500,-81.2808333
(estimated)
Elevation: 113 ft. / 34 m (estimated)
Variation: 03W (1985)
From city: 8 miles E of ORLANDO, FL
Time zone: UTC -5 (UTC -4 during Daylight Saving Time)
Zip code: 32822

Heliport Operations

Heliport use: Private use, MEDICAL.
Activation date: 06/1985
Control tower: no
ARTCC: JACKSONVILLE CENTER
FSS: SAINT PETERSBURG FLIGHT SERVICE STATION
Attendance: CONTINUOUS
Wind indicator: yes
Segmented circle: no

Heliport Communications

WX ASOS at ORL (2.8 nm W): PHONE 407-658-6753
WX ASOS at MCO (7 nm S): PHONE 407-855-5235
WX ASOS at SFB (14 nm N): PHONE 407-321-9384
WX AWOS-3PT at ISM (17 nm SW): 128.775 (407-847-0533)

Nearby radio navigation aids

VOR radial/distance  VOR name  Freq  Var
ORLr092/2.9ORLANDO VORTAC112.2000E

Heliport Services

Runway Information

Helipad H1

Dimensions: 50 x 50 ft. / 15 x 15 m
Surface: asphalt
Latitude: 28-32.473667N
Longitude: 081-16.796667W
Elevation: 113.0 ft.
Traffic pattern: leftleft

Heliport Ownership and Management from official FAA records

Ownership: Privately-owned
Owner: 1 ADVENTIST HEALTH SYSTEM / SUNBELT
901 NORTH LAKE DESTINY RD STE 375
MAITLAND, FL 32751-6135
Phone 407-303-1610
Manager: RICHARD NETTLES
601 ROLLINS AVENUE, BOX 161
ORLANDO, FL 32822
Phone (407) 303-8832

Additional Remarks

FOR CD CTC ORLANDO APCH AT 407-852-7553.

Instrument Procedures

There are no published instrument procedures at FD36.

Some nearby airports with instrument procedures:

KORL - Executive Airport (3 nm W)
KMCO - Orlando International Airport (7 nm S)
KSFB - Orlando Sanford International Airport (14 nm N)
KISM - Kissimmee Gateway Airport (17 nm SW)
X04 - Orlando Apopka Airport (19 nm NW)
 
Loc | Ops | Rwys | IFR | FBO | Links
Com | Nav | Svcs | Stats | Notes


 
Area around FD36 (Advent Health East Orlando Heliport)
 
Road maps at: MapQuest Bing Google
 
Aerial photo
WARNING: Photo may not be current or correct
Aerial photo of FD36 (Advent Health East Orlando Heliport)
Photo by Don F. Pease
Photo taken 28-Mar-2006
looking south.

Do you have a better or more recent aerial photo of Advent Health East Orlando Heliport that you would like to share? If so, please send us your photo.

 
Sectional chart

 
Airport distance calculator
Flying to Advent Health East Orlando Heliport? Find the distance to fly.

From to FD36

Sunrise and sunset
Times for 17-Nov-2019
 Local
(UTC-5)
 Zulu
(UTC)
Morning civil twilight06:2511:25
Sunrise06:5011:50
Sunset17:3022:30
Evening civil twilight17:5522:55

Current date and time
Zulu (UTC)  18-Nov-2019 00:46:13
Local (UTC-5)  17-Nov-2019 19:46:13
 
METAR
KORL 
3nm W 
172353Z 32005KT 10SM OVC012 12/09 A2990 RMK AO2 SLP129 T01220089 10133 20122 53001
KMCO 
8nm S 
172353Z 32006KT 10SM OVC013 12/08 A2989 RMK SLP121 T01220083 10139 20122 58003
KSFB 
14nm N 
172353Z 30008KT 10SM BKN009 11/09 A2990 RMK AO2 SLP124 T01110089 10122 20111 53001
KISM 
17nm SW 
172356Z 36005KT 10SM OVC011 12/10 A2992 RMK AO2 SLP131 6//// T01220100 10139 20117 53005 PNO $
TAF
KMCO 
8nm S 
172104Z 1721/1824 33009KT P6SM OVC014 FM180200 33005KT P6SM BKN015 FM180600 32004KT P6SM SCT015 FM181500 29008KT P6SM FEW035
KSFB 
14nm N 
172106Z 1721/1818 31009KT P6SM OVC013 FM180000 33008KT P6SM BKN015 FM180300 33004KT P6SM SCT015 FM181500 30007KT P6SM FEW035
KISM 
17nm SW 
172107Z 1721/1818 32008KT P6SM OVC015 FM180000 34004KT P6SM BKN015 FM180600 33004KT P6SM SCT015 FM181500 29007KT P6SM FEW035
NOTAMs
Click for the latest NOTAMs
NOTAMs are issued by the DoD/FAA and will open in a separate window not controlled by AirNav.

 

 
 

Would you like to see your business listed on this page?

 If your business provides an interesting product or service to pilots, flight crews, aircraft, or users of the Advent Health East Orlando Heliport, you should consider listing it here.  To start the listing process, click on the button below
 
Add a business
 

Other Pages about Advent Health East Orlando Heliport

Update a link
 
Copyright © AirNav, LLC. All rights reserved. Privacy Policy  Contact